Time;durP1;ratioP1;P1;durP2;ratioP2;P2;SDS_P1;SDS_P2;PMS_P1;PMS_P2;Temp;Humidity;BMP_temperature;BMP_pressure;BME280_temperature;BME280_humidity;BME280_pressure;Samples;Min_cycle;Max_cycle;Signal;HPM_P1;HPM_P2
2023/06/02 00:00:50;;;;;;;8.85;3.75;;;17.20;1.00;;;;;;7352870;19;20015;-68
2023/06/02 00:03:20;;;;;;;5.20;3.28;;;17.10;1.00;;;;;;7353764;19;20015;-68
2023/06/02 00:05:53;;;;;;;6.53;3.65;;;17.10;1.00;;;;;;7350021;19;20019;-67
2023/06/02 00:08:23;;;;;;;9.50;3.83;;;17.10;1.00;;;;;;7373541;19;20022;-67
2023/06/02 00:10:53;;;;;;;7.15;3.67;;;17.00;1.00;;;;;;7350566;19;20018;-67
2023/06/02 00:13:24;;;;;;;7.43;3.80;;;17.00;1.00;;;;;;7351929;19;20059;-68
2023/06/02 00:15:55;;;;;;;7.43;3.92;;;16.90;1.00;;;;;;7352287;19;20093;-67
2023/06/02 00:18:25;;;;;;;7.68;3.92;;;16.90;1.00;;;;;;7350809;19;20010;-68
2023/06/02 00:20:59;;;;;;;7.43;3.97;;;16.90;1.00;;;;;;7349182;19;20048;-67
2023/06/02 00:23:30;;;;;;;7.47;4.80;;;16.80;1.00;;;;;;7373111;19;20613;-67
2023/06/02 00:26:01;;;;;;;7.18;4.07;;;16.80;1.00;;;;;;7353006;19;20015;-68
2023/06/02 00:28:32;;;;;;;6.03;3.97;;;16.70;1.00;;;;;;7351542;19;20494;-68
2023/06/02 00:31:02;;;;;;;7.72;4.47;;;16.60;1.00;;;;;;7356213;19;20124;-68
2023/06/02 00:33:32;;;;;;;5.80;3.67;;;16.60;1.00;;;;;;7358122;19;20498;-68
2023/06/02 00:36:05;;;;;;;5.35;3.72;;;16.50;1.00;;;;;;7359427;19;20026;-67
2023/06/02 00:38:35;;;;;;;7.40;3.78;;;16.50;1.00;;;;;;7375960;19;20477;-68
2023/06/02 00:41:06;;;;;;;6.13;4.13;;;16.50;1.00;;;;;;7377868;19;20018;-68
2023/06/02 00:43:36;;;;;;;5.72;3.92;;;16.40;1.00;;;;;;7358216;19;20589;-68
2023/06/02 00:46:06;;;;;;;5.28;3.90;;;16.30;1.00;;;;;;7358627;19;20092;-68
2023/06/02 00:48:36;;;;;;;6.93;4.40;;;16.40;1.00;;;;;;7358612;19;20033;-67
2023/06/02 00:51:08;;;;;;;6.93;4.22;;;16.30;1.00;;;;;;7357868;19;20209;-68
2023/06/02 00:53:40;;;;;;;7.22;4.47;;;16.30;1.00;;;;;;7364011;19;20018;-68
2023/06/02 00:56:10;;;;;;;6.38;3.92;;;16.30;1.00;;;;;;7388817;19;20022;-68
2023/06/02 00:58:41;;;;;;;6.10;4.00;;;16.20;1.00;;;;;;7366439;19;20014;-68
2023/06/02 01:01:12;;;;;;;6.10;4.03;;;16.20;1.00;;;;;;7365039;19;20074;-68
2023/06/02 01:03:44;;;;;;;7.75;4.63;;;16.20;1.00;;;;;;7365298;19;20538;-68
2023/06/02 01:06:23;;;;;;;6.57;3.85;;;16.10;1.00;;;;;;7367729;19;20011;-67
2023/06/02 01:08:53;;;;;;;6.72;4.50;;;16.10;1.00;;;;;;7366543;19;20018;-66
2023/06/02 01:11:23;;;;;;;9.32;4.32;;;16.10;1.00;;;;;;7385922;19;20022;-67
2023/06/02 01:13:54;;;;;;;6.70;4.25;;;16.10;1.00;;;;;;7365658;19;20034;-68
2023/06/02 01:16:26;;;;;;;8.05;4.80;;;16.00;1.00;;;;;;7366292;19;20094;-67
2023/06/02 01:18:59;;;;;;;5.05;4.15;;;15.90;1.00;;;;;;7367611;19;20025;-66
2023/06/02 01:21:37;;;;;;;7.47;3.90;;;15.90;1.00;;;;;;7364786;19;20027;-67
2023/06/02 01:24:14;;;;;;;7.05;4.60;;;15.80;1.00;;;;;;7365679;19;20018;-67
2023/06/02 01:26:44;;;;;;;6.68;4.65;;;15.70;1.00;;;;;;7367169;19;20014;-66
2023/06/02 01:29:14;;;;;;;6.88;4.18;;;15.70;1.00;;;;;;7386541;19;20014;-66
2023/06/02 01:31:49;;;;;;;7.00;4.50;;;15.60;1.00;;;;;;7365189;19;20029;-67
2023/06/02 01:34:30;;;;;;;4.43;3.83;;;15.50;1.00;;;;;;7365578;19;20497;-67
2023/06/02 01:37:03;;;;;;;9.20;5.00;;;15.50;1.00;;;;;;7367683;19;20031;-67
2023/06/02 01:39:36;;;;;;;9.93;4.93;;;15.50;1.00;;;;;;7365635;19;20609;-67
2023/06/02 01:42:07;;;;;;;12.55;4.78;;;15.40;1.00;;;;;;7364052;19;20011;-67
2023/06/02 01:44:39;;;;;;;8.13;4.55;;;15.30;1.00;;;;;;7369455;19;20056;-67
2023/06/02 01:47:10;;;;;;;9.38;4.25;;;15.20;1.00;;;;;;7387916;19;20026;-67
2023/06/02 01:49:40;;;;;;;8.60;4.65;;;15.20;1.00;;;;;;7364189;19;20022;-67
2023/06/02 01:52:10;;;;;;;8.15;4.28;;;15.10;1.00;;;;;;7366859;19;20118;-67
2023/06/02 01:54:43;;;;;;;8.40;4.50;;;15.10;1.00;;;;;;7365452;19;20514;-68
2023/06/02 01:57:13;;;;;;;7.30;4.30;;;15.00;1.00;;;;;;7365791;19;20018;-68
2023/06/02 01:59:43;;;;;;;6.97;4.40;;;14.90;1.00;;;;;;7363037;19;20014;-66
2023/06/02 02:02:13;;;;;;;6.88;4.80;;;14.80;1.00;;;;;;7387686;19;20061;-67
2023/06/02 02:04:43;;;;;;;9.07;5.20;;;14.80;1.00;;;;;;7364714;19;20517;-67
2023/06/02 02:07:19;;;;;;;8.38;4.45;;;14.70;1.00;;;;;;7365170;19;20105;-67
2023/06/02 02:09:52;;;;;;;9.63;4.80;;;14.70;1.00;;;;;;7363616;19;20102;-66
2023/06/02 02:12:22;;;;;;;7.75;4.63;;;14.60;1.00;;;;;;7366177;19;20019;-67
2023/06/02 02:14:56;;;;;;;8.30;4.88;;;14.60;1.00;;;;;;7365372;19;20018;-67
2023/06/02 02:17:28;;;;;;;8.38;4.55;;;14.60;1.00;;;;;;7388167;19;20010;-67
2023/06/02 02:19:58;;;;;;;9.50;4.35;;;14.50;1.00;;;;;;7363131;19;20019;-67
2023/06/02 02:22:28;;;;;;;9.40;4.57;;;14.50;1.00;;;;;;7364950;19;20029;-67
2023/06/02 02:25:01;;;;;;;6.75;4.57;;;14.40;1.00;;;;;;7363117;19;20011;-67
2023/06/02 02:27:31;;;;;;;10.88;5.28;;;14.40;1.00;;;;;;7362929;19;20011;-67
2023/06/02 02:30:02;;;;;;;8.77;4.60;;;14.40;1.00;;;;;;7363546;19;20018;-67
2023/06/02 02:32:33;;;;;;;10.23;4.72;;;14.40;1.00;;;;;;7386480;19;20082;-67
2023/06/02 02:35:03;;;;;;;8.27;5.00;;;14.40;1.00;;;;;;7363026;19;20095;-67
2023/06/02 02:37:33;;;;;;;8.85;5.30;;;14.40;1.00;;;;;;7364602;19;20029;-67
2023/06/02 02:40:18;;;;;;;9.27;4.85;;;14.30;1.00;;;;;;7362755;19;20102;-67
2023/06/02 02:42:48;;;;;;;7.03;4.85;;;14.20;1.00;;;;;;7364061;19;20052;-66
2023/06/02 02:45:18;;;;;;;8.05;4.97;;;14.20;1.00;;;;;;7363757;19;20018;-66
2023/06/02 02:47:48;;;;;;;12.20;5.53;;;14.10;1.00;;;;;;7365131;19;20035;-67
2023/06/02 02:50:18;;;;;;;7.53;4.57;;;14.20;1.00;;;;;;7384058;19;20026;-67
2023/06/02 02:52:48;;;;;;;8.57;5.13;;;14.10;1.00;;;;;;7362233;19;20015;-67
2023/06/02 02:55:22;;;;;;;5.85;4.80;;;14.00;1.00;;;;;;7362776;19;20010;-67
2023/06/02 02:57:53;;;;;;;8.50;4.57;;;14.00;1.00;;;;;;7364330;19;20060;-67
2023/06/02 03:00:23;;;;;;;7.53;4.90;;;13.90;1.00;;;;;;7362306;19;20010;-66
2023/06/02 03:02:54;;;;;;;7.30;4.65;;;13.90;1.00;;;;;;7363776;19;20652;-67
2023/06/02 03:05:25;;;;;;;8.40;4.70;;;13.90;1.00;;;;;;7383957;19;20039;-67
2023/06/02 03:07:55;;;;;;;7.70;5.38;;;13.80;1.00;;;;;;7363432;19;20048;-67
2023/06/02 03:10:27;;;;;;;7.53;5.13;;;13.80;1.00;;;;;;7362508;19;20341;-67
2023/06/02 03:12:57;;;;;;;9.27;6.03;;;13.80;1.00;;;;;;7363617;19;20454;-67
2023/06/02 03:15:27;;;;;;;7.82;5.28;;;13.70;1.00;;;;;;7363241;19;20017;-66
2023/06/02 03:17:59;;;;;;;9.52;5.03;;;13.80;1.00;;;;;;7364607;19;20061;-66
2023/06/02 03:20:29;;;;;;;8.77;5.40;;;13.80;1.00;;;;;;7383616;19;20039;-66
2023/06/02 03:22:59;;;;;;;7.50;5.20;;;13.70;1.00;;;;;;7363462;19;20011;-67
2023/06/02 03:25:31;;;;;;;8.60;5.78;;;13.60;1.00;;;;;;7362575;19;20043;-67
2023/06/02 03:28:02;;;;;;;12.63;5.88;;;13.60;1.00;;;;;;7364139;19;20106;-67
2023/06/02 03:30:32;;;;;;;10.15;5.63;;;13.50;1.00;;;;;;7361848;19;20014;-67
2023/06/02 03:33:02;;;;;;;9.85;6.30;;;13.50;1.00;;;;;;7363642;19;20018;-67
2023/06/02 03:35:32;;;;;;;9.48;6.20;;;13.50;1.00;;;;;;7383915;19;20489;-66
2023/06/02 03:38:05;;;;;;;10.43;6.07;;;13.50;1.00;;;;;;7363276;19;20053;-66
2023/06/02 03:40:37;;;;;;;12.77;6.20;;;13.40;1.00;;;;;;7360910;19;20014;-66
2023/06/02 03:43:07;;;;;;;10.93;6.32;;;13.60;1.00;;;;;;7362946;19;20048;-67
2023/06/02 03:45:37;;;;;;;9.23;6.10;;;13.80;1.00;;;;;;7361552;19;20386;-66
2023/06/02 03:48:08;;;;;;;10.55;6.10;;;13.80;1.00;;;;;;7362551;19;20085;-66
2023/06/02 03:50:38;;;;;;;9.50;6.00;;;14.00;1.00;;;;;;7366182;19;20048;-67
2023/06/02 03:53:08;;;;;;;11.25;5.60;;;14.60;1.00;;;;;;7384439;19;20022;-67
2023/06/02 03:55:41;;;;;;;9.10;6.28;;;14.70;1.00;;;;;;7361276;19;20031;-67
2023/06/02 03:58:12;;;;;;;8.27;5.78;;;14.80;1.00;;;;;;7362536;19;20043;-67
2023/06/02 04:00:43;;;;;;;8.98;5.70;;;15.20;1.00;;;;;;7361123;19;20023;-67
2023/06/02 04:03:13;;;;;;;14.02;6.15;;;15.40;1.00;;;;;;7362779;19;20052;-66
2023/06/02 04:05:44;;;;;;;10.57;6.13;;;15.50;1.00;;;;;;7364692;19;20018;-66
2023/06/02 04:08:14;;;;;;;9.52;6.28;;;16.10;1.00;;;;;;7391437;19;20089;-67
2023/06/02 04:10:46;;;;;;;8.52;5.78;;;16.00;1.00;;;;;;7366972;19;20379;-66
2023/06/02 04:13:16;;;;;;;10.25;6.00;;;16.10;1.00;;;;;;7369333;19;20500;-66
2023/06/02 04:15:46;;;;;;;9.80;6.20;;;15.80;1.00;;;;;;7369001;19;20010;-66
2023/06/02 04:18:16;;;;;;;8.63;6.03;;;16.20;1.00;;;;;;7368888;19;20017;-67
2023/06/02 04:20:47;;;;;;;9.13;5.70;;;16.00;1.00;;;;;;7367184;19;20026;-67
2023/06/02 04:23:17;;;;;;;8.85;6.38;;;16.00;1.00;;;;;;7388538;19;20018;-67
2023/06/02 04:25:49;;;;;;;9.90;6.15;;;16.60;1.00;;;;;;7367845;19;20006;-66
2023/06/02 04:28:19;;;;;;;9.52;6.28;;;16.90;1.00;;;;;;7369012;19;20010;-66
2023/06/02 04:30:51;;;;;;;12.98;6.40;;;16.70;1.00;;;;;;7367039;19;20020;-67
2023/06/02 04:33:21;;;;;;;10.80;6.50;;;16.60;1.00;;;;;;7369478;19;20014;-68
2023/06/02 04:35:51;;;;;;;12.45;6.75;;;16.70;1.00;;;;;;7367897;19;20335;-66
2023/06/02 04:38:21;;;;;;;11.57;6.97;;;17.30;1.00;;;;;;7390192;19;20039;-67
2023/06/02 04:40:56;;;;;;;10.65;6.55;;;17.30;1.00;;;;;;7365617;19;20022;-67
2023/06/02 04:43:26;;;;;;;14.57;6.55;;;17.10;1.00;;;;;;7366756;19;20010;-67
2023/06/02 04:45:56;;;;;;;10.18;6.50;;;17.50;1.00;;;;;;7366511;19;20014;-67
2023/06/02 04:48:26;;;;;;;13.23;6.63;;;17.70;1.00;;;;;;7368570;19;20010;-67
2023/06/02 04:50:56;;;;;;;13.18;6.20;;;18.50;1.00;;;;;;7366352;19;20030;-66
2023/06/02 04:53:26;;;;;;;9.10;6.80;;;17.80;1.00;;;;;;7389475;19;20039;-66
2023/06/02 04:55:59;;;;;;;10.57;6.40;;;17.70;1.00;;;;;;7366512;19;20022;-66
2023/06/02 04:58:29;;;;;;;9.30;6.47;;;17.50;1.00;;;;;;7368161;19;20014;-67
2023/06/02 05:00:59;;;;;;;8.77;6.20;;;17.80;1.00;;;;;;7367084;19;20486;-67
2023/06/02 05:03:29;;;;;;;9.93;6.60;;;18.50;1.00;;;;;;7365948;19;20813;-67
2023/06/02 05:05:59;;;;;;;11.38;6.28;;;18.70;1.00;;;;;;7367506;19;20052;-67
2023/06/02 05:08:29;;;;;;;10.02;6.53;;;19.20;1.00;;;;;;7388822;19;20052;-67
2023/06/02 05:11:01;;;;;;;11.15;6.55;;;19.00;1.00;;;;;;7364986;19;20362;-67
2023/06/02 05:13:31;;;;;;;10.18;6.15;;;19.20;1.00;;;;;;7367127;19;20071;-67
2023/06/02 05:16:02;;;;;;;12.35;6.68;;;18.30;1.00;;;;;;7366572;19;20015;-67
2023/06/02 05:18:33;;;;;;;9.88;6.18;;;18.30;1.00;;;;;;7368261;19;20034;-67
2023/06/02 05:21:03;;;;;;;7.40;5.88;;;17.00;1.00;;;;;;7365843;19;20090;-67
2023/06/02 05:23:33;;;;;;;8.32;6.03;;;18.30;1.00;;;;;;7386396;19;20022;-67
2023/06/02 05:26:05;;;;;;;13.82;6.63;;;18.40;1.00;;;;;;7366983;19;20014;-67
2023/06/02 05:28:36;;;;;;;9.60;6.55;;;18.20;1.00;;;;;;7366595;19;20021;-66
2023/06/02 05:31:05;;;;;;;11.57;6.90;;;17.50;1.00;;;;;;7365861;19;20053;-67
2023/06/02 05:33:35;;;;;;;9.68;6.68;;;17.70;1.00;;;;;;7366775;19;20041;-67
2023/06/02 05:36:06;;;;;;;12.73;7.18;;;18.10;1.00;;;;;;7366925;19;20412;-68
2023/06/02 05:38:36;;;;;;;9.65;6.28;;;17.80;1.00;;;;;;7387787;19;20635;-67
2023/06/02 05:41:08;;;;;;;10.20;6.65;;;17.50;1.00;;;;;;7364118;19;20534;-66
2023/06/02 05:43:38;;;;;;;13.48;5.80;;;17.50;1.00;;;;;;7361412;19;20475;-68
2023/06/02 05:46:08;;;;;;;7.85;5.78;;;18.10;1.00;;;;;;7365311;19;20170;-67
2023/06/02 05:48:38;;;;;;;9.35;6.60;;;18.20;1.00;;;;;;7366434;19;20022;-67
2023/06/02 05:51:08;;;;;;;13.55;6.90;;;17.90;1.00;;;;;;7364839;19;20014;-66
2023/06/02 05:53:38;;;;;;;9.55;6.50;;;17.90;1.00;;;;;;7368774;19;20014;-67
2023/06/02 05:56:11;;;;;;;9.50;6.68;;;17.70;1.00;;;;;;7388386;19;20103;-67
2023/06/02 05:58:41;;;;;;;9.52;7.03;;;17.20;1.00;;;;;;7365229;19;20082;-68
2023/06/02 06:01:11;;;;;;;12.23;6.78;;;17.80;1.00;;;;;;7365273;19;20393;-67
2023/06/02 06:03:41;;;;;;;11.57;6.50;;;17.10;1.00;;;;;;7355567;19;20097;-67
2023/06/02 06:06:11;;;;;;;9.93;6.70;;;17.60;1.00;;;;;;7366134;19;20014;-67
2023/06/02 06:08:41;;;;;;;10.10;6.07;;;16.10;1.00;;;;;;7364850;19;20038;-67
2023/06/02 06:11:14;;;;;;;9.30;6.72;;;15.10;1.00;;;;;;7385253;19;20022;-67
2023/06/02 06:13:43;;;;;;;8.23;6.43;;;14.80;1.00;;;;;;7364753;19;20017;-67
2023/06/02 06:16:13;;;;;;;9.93;6.90;;;15.10;1.00;;;;;;7364893;19;20010;-67
2023/06/02 06:18:44;;;;;;;10.00;6.90;;;15.50;1.00;;;;;;7364713;19;20410;-67
2023/06/02 06:21:14;;;;;;;9.48;6.18;;;15.70;1.00;;;;;;7363505;19;20006;-67
2023/06/02 06:23:44;;;;;;;12.40;7.38;;;15.60;1.00;;;;;;7363990;19;20048;-67
2023/06/02 06:26:16;;;;;;;11.02;6.00;;;15.80;1.00;;;;;;7386267;19;20374;-68
2023/06/02 06:28:46;;;;;;;9.40;7.10;;;16.80;1.00;;;;;;7362543;19;20034;-68
2023/06/02 06:31:16;;;;;;;10.27;6.88;;;16.90;1.00;;;;;;7363974;19;20014;-68
2023/06/02 06:33:46;;;;;;;10.05;6.43;;;17.70;1.00;;;;;;7364567;19;20119;-68
2023/06/02 06:36:16;;;;;;;9.40;6.43;;;16.90;1.00;;;;;;7365155;19;20093;-67
2023/06/02 06:38:46;;;;;;;8.68;6.20;;;16.80;1.00;;;;;;7362757;19;20034;-68
2023/06/02 06:41:21;;;;;;;12.65;6.68;;;16.20;1.00;;;;;;7383501;19;20082;-67
2023/06/02 06:43:51;;;;;;;11.35;6.60;;;16.30;1.00;;;;;;7363219;19;20824;-66
2023/06/02 06:46:21;;;;;;;9.45;6.30;;;16.70;1.00;;;;;;7363489;19;20075;-66
2023/06/02 06:48:51;;;;;;;8.85;6.40;;;16.20;1.00;;;;;;7363649;19;20620;-67
2023/06/02 06:51:21;;;;;;;8.18;6.13;;;16.00;1.00;;;;;;7362177;19;20372;-67
2023/06/02 06:53:51;;;;;;;8.48;6.50;;;15.90;1.00;;;;;;7363090;19;20510;-67
2023/06/02 06:56:25;;;;;;;9.15;5.68;;;16.00;1.00;;;;;;7385413;19;20014;-68
2023/06/02 06:58:55;;;;;;;7.82;6.00;;;16.30;1.00;;;;;;7362220;19;20794;-68
2023/06/02 07:01:24;;;;;;;8.70;6.50;;;16.40;1.00;;;;;;7362450;19;20946;-67
2023/06/02 07:03:54;;;;;;;10.60;5.72;;;15.70;1.00;;;;;;7361221;19;20705;-67
2023/06/02 07:06:25;;;;;;;10.65;6.70;;;16.00;1.00;;;;;;7363344;19;20133;-68
2023/06/02 07:08:55;;;;;;;10.68;6.68;;;16.00;1.00;;;;;;7362736;19;20018;-67
2023/06/02 07:11:28;;;;;;;9.57;6.88;;;15.80;1.00;;;;;;7381661;19;20038;-67
2023/06/02 07:13:59;;;;;;;9.00;6.60;;;15.80;1.00;;;;;;7362094;19;20110;-67
2023/06/02 07:16:48;;;;;;;8.73;6.88;;;15.70;1.00;;;;;;7362494;19;20018;-68
2023/06/02 07:19:19;;;;;;;9.85;6.78;;;16.30;1.00;;;;;;7362889;19;20015;-68
2023/06/02 07:21:49;;;;;;;9.30;6.35;;;15.90;1.00;;;;;;7360364;19;20038;-67
2023/06/02 07:24:20;;;;;;;8.18;6.25;;;15.90;1.00;;;;;;7361624;19;20391;-67
2023/06/02 07:26:52;;;;;;;7.43;6.18;;;16.30;1.00;;;;;;7362730;19;20494;-67
2023/06/02 07:29:22;;;;;;;8.02;6.20;;;16.60;1.00;;;;;;7383610;19;20026;-67
2023/06/02 07:31:52;;;;;;;10.70;7.20;;;16.50;1.00;;;;;;7360954;19;20498;-67
2023/06/02 07:34:22;;;;;;;8.38;6.60;;;16.70;1.00;;;;;;7360084;19;20017;-67
2023/06/02 07:36:52;;;;;;;10.45;6.22;;;16.70;1.00;;;;;;7361064;19;20487;-66
2023/06/02 07:39:25;;;;;;;9.30;6.63;;;16.50;1.00;;;;;;7359852;19;20112;-68
2023/06/02 07:41:57;;;;;;;9.80;6.40;;;16.00;1.00;;;;;;7361423;19;20011;-67
2023/06/02 07:44:27;;;;;;;8.88;6.38;;;16.80;1.00;;;;;;7380585;19;20018;-67
2023/06/02 07:46:57;;;;;;;10.02;6.13;;;16.50;1.00;;;;;;7361195;19;20010;-67
2023/06/02 07:49:27;;;;;;;8.52;6.00;;;16.40;1.00;;;;;;7361715;19;20502;-67
2023/06/02 07:51:57;;;;;;;8.98;6.40;;;16.40;1.00;;;;;;7361423;19;20137;-66
2023/06/02 07:54:27;;;;;;;9.68;6.20;;;16.70;1.00;;;;;;7361510;19;20154;-67
2023/06/02 07:57:00;;;;;;;9.60;7.05;;;16.70;1.00;;;;;;7361970;19;20027;-66
2023/06/02 07:59:30;;;;;;;8.75;6.40;;;16.80;1.00;;;;;;7383186;19;20042;-66
2023/06/02 08:02:00;;;;;;;8.55;6.25;;;16.60;1.00;;;;;;7361078;19;20048;-67
2023/06/02 08:04:30;;;;;;;9.15;6.13;;;17.10;1.00;;;;;;7360127;19;20014;-67
2023/06/02 08:07:00;;;;;;;10.32;6.15;;;17.20;1.00;;;;;;7361438;19;20159;-67
2023/06/02 08:09:30;;;;;;;9.15;6.20;;;16.90;1.00;;;;;;7361590;19;20034;-67
2023/06/02 08:12:03;;;;;;;9.25;6.13;;;17.00;1.00;;;;;;7361294;19;20015;-67
2023/06/02 08:14:33;;;;;;;10.95;6.43;;;16.80;1.00;;;;;;7383273;19;20019;-68
2023/06/02 08:17:03;;;;;;;10.82;6.63;;;17.30;1.00;;;;;;7361672;19;20748;-68
2023/06/02 08:19:33;;;;;;;10.45;6.88;;;17.00;1.00;;;;;;7359383;19;20085;-68
2023/06/02 08:22:03;;;;;;;9.93;7.35;;;17.30;1.00;;;;;;7360856;19;20021;-68
2023/06/02 08:24:36;;;;;;;8.35;6.70;;;17.30;1.00;;;;;;7361529;19;20015;-68
2023/06/02 08:27:09;;;;;;;9.48;7.07;;;17.30;1.00;;;;;;7361896;19;20125;-67
2023/06/02 08:29:39;;;;;;;11.10;7.07;;;17.10;1.00;;;;;;7360928;19;20026;-67
2023/06/02 08:32:09;;;;;;;10.05;7.15;;;16.90;1.00;;;;;;7380418;19;20701;-67
2023/06/02 08:34:41;;;;;;;11.05;6.68;;;17.00;1.00;;;;;;7359420;19;20358;-67
2023/06/02 08:37:15;;;;;;;9.00;6.60;;;16.90;1.00;;;;;;7360271;19;20086;-67
2023/06/02 08:39:45;;;;;;;7.82;6.65;;;17.20;1.00;;;;;;7360420;19;20646;-67
2023/06/02 08:42:18;;;;;;;9.63;6.95;;;17.20;1.00;;;;;;7360793;19;20101;-68
2023/06/02 08:44:48;;;;;;;10.77;7.70;;;17.30;1.00;;;;;;7358729;19;20397;-68
2023/06/02 08:47:22;;;;;;;11.48;7.30;;;17.30;1.00;;;;;;7382440;19;20011;-68
2023/06/02 08:49:52;;;;;;;10.27;7.68;;;17.50;1.00;;;;;;7359031;19;20026;-67
2023/06/02 08:52:25;;;;;;;11.32;7.18;;;17.50;1.00;;;;;;7367368;19;20182;-68
2023/06/02 08:54:57;;;;;;;11.45;7.50;;;17.50;1.00;;;;;;7367312;19;20007;-68
2023/06/02 08:57:30;;;;;;;12.13;7.22;;;17.70;1.00;;;;;;7367286;19;20549;-67
2023/06/02 09:00:00;;;;;;;10.35;6.78;;;17.90;1.00;;;;;;7366330;19;20032;-66
2023/06/02 09:02:30;;;;;;;10.68;7.18;;;18.50;1.00;;;;;;7389955;19;20312;-67
2023/06/02 09:05:02;;;;;;;10.45;7.22;;;18.40;1.00;;;;;;7364822;19;20014;-68
2023/06/02 09:07:33;;;;;;;11.75;7.38;;;18.40;1.00;;;;;;7366810;19;20018;-68
2023/06/02 09:10:03;;;;;;;10.73;7.50;;;18.30;1.00;;;;;;7364549;19;20021;-68
2023/06/02 09:12:49;;;;;;;10.52;6.47;;;18.10;1.00;;;;;;7366742;19;20031;-68
2023/06/02 09:15:19;;;;;;;9.00;7.00;;;18.10;1.00;;;;;;7364936;19;20018;-68
2023/06/02 09:17:49;;;;;;;8.52;7.07;;;17.90;1.00;;;;;;7363880;19;20022;-67
2023/06/02 09:20:19;;;;;;;9.35;7.00;;;18.30;1.00;;;;;;7386017;19;20471;-67
2023/06/02 09:22:56;;;;;;;8.25;6.53;;;18.30;1.00;;;;;;7366802;19;20021;-68
2023/06/02 09:25:28;;;;;;;14.43;6.40;;;18.80;1.00;;;;;;7363927;19;20022;-68
2023/06/02 09:28:02;;;;;;;8.60;6.32;;;18.50;1.00;;;;;;7365332;19;20020;-68
2023/06/02 09:30:32;;;;;;;8.23;6.10;;;18.50;1.00;;;;;;7360864;19;20056;-68
2023/06/02 09:33:03;;;;;;;10.02;6.80;;;18.80;1.00;;;;;;7366201;19;20043;-68
2023/06/02 09:35:40;;;;;;;8.57;6.80;;;18.80;1.00;;;;;;7387367;19;20011;-68
2023/06/02 09:38:12;;;;;;;9.30;6.90;;;18.80;1.00;;;;;;7365388;19;20438;-68
2023/06/02 09:40:43;;;;;;;11.85;6.80;;;18.20;1.00;;;;;;7362956;19;20021;-67
2023/06/02 09:43:19;;;;;;;9.80;7.30;;;18.40;1.00;;;;;;7364648;19;20014;-67
2023/06/02 09:46:03;;;;;;;9.90;6.70;;;18.60;1.00;;;;;;7365697;19;20515;-67
2023/06/02 09:48:35;;;;;;;9.57;6.47;;;18.50;1.00;;;;;;7364509;19;20015;-67
2023/06/02 09:51:23;;;;;;;10.95;7.40;;;19.20;1.00;;;;;;7355163;19;20034;-66
2023/06/02 09:53:55;;;;;;;8.98;6.22;;;18.80;1.00;;;;;;7354448;19;20082;-67
2023/06/02 09:56:29;;;;;;;9.85;5.95;;;19.40;1.00;;;;;;7375104;19;20030;-67
2023/06/02 09:59:03;;;;;;;8.32;6.68;;;19.60;1.00;;;;;;7354485;19;20043;-67
2023/06/02 10:01:33;;;;;;;7.57;6.13;;;19.50;1.00;;;;;;7354584;19;20345;-67
2023/06/02 10:04:04;;;;;;;10.27;6.15;;;19.90;1.00;;;;;;7352500;19;20057;-67
2023/06/02 10:06:51;;;;;;;8.32;5.93;;;19.60;1.00;;;;;;7353165;19;20014;-67
2023/06/02 10:09:35;;;;;;;8.77;6.53;;;19.90;1.00;;;;;;7355292;19;20019;-67
2023/06/02 10:12:29;;;;;;;6.22;5.40;;;19.20;1.00;;;;;;7355335;19;20010;-67
2023/06/02 10:15:26;;;;;;;6.87;5.90;;;19.70;1.00;;;;;;7355053;19;20018;-67
2023/06/02 10:18:11;;;;;;;7.45;5.65;;;19.30;1.00;;;;;;7354394;19;20018;-67
2023/06/02 10:20:45;;;;;;;8.10;6.22;;;19.90;1.00;;;;;;7362182;19;20336;-68
2023/06/02 10:23:31;;;;;;;8.05;6.03;;;20.00;1.00;;;;;;7375789;19;20021;-67
2023/06/02 10:26:27;;;;;;;9.23;5.85;;;20.00;1.00;;;;;;7350441;19;20044;-67
2023/06/02 10:29:03;;;;;;;9.15;6.07;;;20.30;1.00;;;;;;7354007;19;20028;-68
2023/06/02 10:31:35;;;;;;;7.50;6.15;;;19.60;1.00;;;;;;7352787;19;20380;-68
2023/06/02 10:34:05;;;;;;;9.50;6.05;;;19.90;1.00;;;;;;7354065;19;20014;-67
2023/06/02 10:37:05;;;;;;;9.15;5.55;;;20.00;1.00;;;;;;7353451;19;20018;-67
2023/06/02 10:39:53;;;;;;;11.45;5.90;;;20.10;1.00;;;;;;7353845;19;20451;-67
2023/06/02 10:42:25;;;;;;;7.55;5.60;;;20.20;1.00;;;;;;7355028;19;20499;-67
2023/06/02 10:45:41;;;;;;;7.82;5.95;;;20.50;1.00;;;;;;7354336;19;20018;-66
2023/06/02 10:48:44;;;;;;;7.35;5.45;;;20.70;1.00;;;;;;7351955;19;20018;-68
2023/06/02 10:51:14;;;;;;;8.55;5.60;;;20.30;1.00;;;;;;7352203;19;20010;-68
2023/06/02 10:54:15;;;;;;;9.57;5.43;;;20.80;1.00;;;;;;7353228;19;20592;-68
2023/06/02 10:56:47;;;;;;;6.93;5.43;;;20.70;1.00;;;;;;7354200;19;20022;-69
2023/06/02 10:59:34;;;;;;;7.07;4.93;;;20.70;1.00;;;;;;7375974;19;20103;-68
2023/06/02 11:02:05;;;;;;;5.93;5.28;;;21.10;1.00;;;;;;7353783;19;20492;-71
2023/06/02 11:04:42;;;;;;;5.93;5.20;;;21.00;1.00;;;;;;7348554;19;20703;-69
2023/06/02 11:07:18;;;;;;;7.15;5.45;;;20.90;1.00;;;;;;7350085;19;20061;-68
2023/06/02 11:09:51;;;;;;;6.80;5.28;;;20.70;1.00;;;;;;7352507;19;20035;-68
2023/06/02 11:12:22;;;;;;;6.95;5.35;;;20.10;1.00;;;;;;7356232;19;20010;-68
2023/06/02 11:15:19;;;;;;;7.07;5.20;;;20.50;1.00;;;;;;7350776;19;20021;-68
2023/06/02 11:17:50;;;;;;;9.77;5.30;;;20.60;1.00;;;;;;7354086;19;20025;-67
2023/06/02 11:20:33;;;;;;;11.50;5.80;;;21.10;1.00;;;;;;7373163;19;20059;-67
2023/06/02 11:23:07;;;;;;;5.32;4.82;;;21.00;1.00;;;;;;7354842;19;20029;-67
2023/06/02 11:25:36;;;;;;;5.07;4.55;;;20.70;1.00;;;;;;7354503;19;20018;-68
2023/06/02 11:28:07;;;;;;;7.50;4.97;;;21.20;1.00;;;;;;7355056;19;20024;-67
2023/06/02 11:30:38;;;;;;;7.90;4.68;;;21.60;1.00;;;;;;7353267;19;20747;-67
2023/06/02 11:33:08;;;;;;;6.88;4.25;;;21.50;1.00;;;;;;7351775;19;20623;-68
2023/06/02 11:35:46;;;;;;;5.97;4.85;;;21.40;1.00;;;;;;7372503;19;20458;-68
2023/06/02 11:38:16;;;;;;;6.78;4.82;;;21.60;1.00;;;;;;7354219;19;20490;-68
2023/06/02 11:40:46;;;;;;;5.25;4.75;;;21.60;1.00;;;;;;7348699;19;20099;-68
2023/06/02 11:43:22;;;;;;;8.50;4.72;;;21.10;1.00;;;;;;7348443;19;20015;-68
2023/06/02 11:45:52;;;;;;;10.65;4.65;;;21.40;1.00;;;;;;7350773;19;20021;-67
2023/06/02 11:48:25;;;;;;;6.15;5.55;;;21.60;1.00;;;;;;7352245;19;20093;-68
2023/06/02 11:50:58;;;;;;;9.00;5.57;;;21.40;1.00;;;;;;7348568;19;20042;-67
2023/06/02 11:53:28;;;;;;;7.10;5.40;;;21.70;1.00;;;;;;7370232;19;20018;-67
2023/06/02 11:55:58;;;;;;;7.35;4.88;;;21.20;1.00;;;;;;7351147;19;20094;-67
2023/06/02 11:58:30;;;;;;;5.85;4.55;;;21.30;1.00;;;;;;7349005;19;20017;-67
2023/06/02 12:01:10;;;;;;;7.28;4.68;;;21.00;1.00;;;;;;7348802;19;20481;-67
2023/06/02 12:03:40;;;;;;;6.40;4.80;;;21.60;1.00;;;;;;7347930;19;20034;-66
2023/06/02 12:06:15;;;;;;;6.15;4.82;;;21.70;1.00;;;;;;7350382;19;20078;-66
2023/06/02 12:08:46;;;;;;;8.73;5.18;;;21.40;1.00;;;;;;7351592;19;20541;-68
2023/06/02 12:11:17;;;;;;;8.60;5.05;;;21.80;1.00;;;;;;7372747;19;20022;-68
2023/06/02 12:13:58;;;;;;;5.70;4.75;;;21.40;1.00;;;;;;7349577;19;20010;-68
2023/06/02 12:16:29;;;;;;;5.85;4.80;;;21.30;1.00;;;;;;7350147;19;20506;-68
2023/06/02 12:19:15;;;;;;;6.05;4.80;;;21.60;1.00;;;;;;7353167;19;20078;-68
2023/06/02 12:21:49;;;;;;;6.93;4.80;;;21.50;1.00;;;;;;7348826;19;20022;-67
2023/06/02 12:24:31;;;;;;;;;;;21.60;1.00;;;;;;7350315;19;20686;-67
2023/06/02 12:27:01;;;;;;;6.05;4.20;;;21.90;1.00;;;;;;7355427;19;19915;-67
2023/06/02 12:29:31;;;;;;;5.80;4.32;;;22.10;1.00;;;;;;7378966;19;20038;-67
2023/06/02 12:32:03;;;;;;;5.38;4.38;;;22.30;1.00;;;;;;7358036;19;20042;-67
2023/06/02 12:34:33;;;;;;;7.85;4.22;;;22.60;1.00;;;;;;7357202;19;20798;-67
2023/06/02 12:37:06;;;;;;;4.55;3.97;;;22.10;1.00;;;;;;7357363;19;20023;-68
2023/06/02 12:39:36;;;;;;;7.47;4.00;;;22.30;1.00;;;;;;7356448;19;20014;-67
2023/06/02 12:42:09;;;;;;;7.90;4.80;;;22.30;1.00;;;;;;7356349;19;20060;-67
2023/06/02 12:44:39;;;;;;;5.68;3.95;;;22.70;1.00;;;;;;7377821;19;20014;-69
2023/06/02 12:47:09;;;;;;;5.90;4.03;;;22.60;1.00;;;;;;7358618;19;20014;-67
2023/06/02 12:49:40;;;;;;;5.25;4.53;;;22.30;1.00;;;;;;7355144;19;20021;-67
2023/06/02 12:52:12;;;;;;;6.28;3.97;;;22.70;1.00;;;;;;7354561;19;20017;-67
2023/06/02 12:54:42;;;;;;;7.82;4.00;;;23.00;1.00;;;;;;7353008;19;20017;-67
2023/06/02 12:57:12;;;;;;;7.47;4.35;;;22.50;1.00;;;;;;7357298;19;20455;-68
2023/06/02 12:59:42;;;;;;;5.88;4.40;;;22.60;1.00;;;;;;7374326;19;20018;-67
2023/06/02 13:02:12;;;;;;;6.57;4.28;;;21.80;1.00;;;;;;7353313;19;20040;-67
2023/06/02 13:04:42;;;;;;;6.45;4.25;;;22.50;1.00;;;;;;7355225;19;20014;-67
2023/06/02 13:07:14;;;;;;;6.78;4.10;;;23.00;1.00;;;;;;7354839;19;20011;-68
2023/06/02 13:09:44;;;;;;;7.40;4.18;;;22.80;1.00;;;;;;7353560;19;20572;-67
2023/06/02 13:12:14;;;;;;;5.43;3.88;;;22.60;1.00;;;;;;7358609;19;20155;-68
2023/06/02 13:14:44;;;;;;;8.02;3.85;;;22.50;1.00;;;;;;7358859;19;20518;-68
2023/06/02 13:17:15;;;;;;;7.72;4.13;;;22.90;1.00;;;;;;7375318;19;20098;-67
2023/06/02 13:19:46;;;;;;;8.85;4.18;;;22.70;1.00;;;;;;7353310;19;20690;-68
2023/06/02 13:22:19;;;;;;;5.57;3.97;;;22.50;1.00;;;;;;7345789;19;20010;-68